sensor_id;sensor_type;location;lat;lon;timestamp;P1;durP1;ratioP1;P2;durP2;ratioP2
2548;SDS011;1284;53.520;10.248;2023-06-22T00:01:42;2.67;;;1.05;;
2548;SDS011;1284;53.520;10.248;2023-06-22T00:04:07;1.35;;;1.00;;
2548;SDS011;1284;53.520;10.248;2023-06-22T00:06:53;1.83;;;1.13;;
2548;SDS011;1284;53.520;10.248;2023-06-22T00:09:18;2.35;;;0.95;;
2548;SDS011;1284;53.520;10.248;2023-06-22T00:12:04;0.88;;;0.60;;
2548;SDS011;1284;53.520;10.248;2023-06-22T00:14:30;1.58;;;1.08;;
2548;SDS011;1284;53.520;10.248;2023-06-22T00:16:55;1.35;;;0.85;;
2548;SDS011;1284;53.520;10.248;2023-06-22T00:19:22;1.17;;;0.90;;
2548;SDS011;1284;53.520;10.248;2023-06-22T00:21:48;0.90;;;0.80;;
2548;SDS011;1284;53.520;10.248;2023-06-22T00:24:20;1.73;;;1.00;;
2548;SDS011;1284;53.520;10.248;2023-06-22T00:26:47;1.00;;;0.77;;
2548;SDS011;1284;53.520;10.248;2023-06-22T00:29:13;1.50;;;0.95;;
2548;SDS011;1284;53.520;10.248;2023-06-22T00:31:39;1.52;;;0.85;;
2548;SDS011;1284;53.520;10.248;2023-06-22T00:34:04;1.45;;;0.75;;
2548;SDS011;1284;53.520;10.248;2023-06-22T00:36:32;1.35;;;0.85;;
2548;SDS011;1284;53.520;10.248;2023-06-22T00:38:58;1.70;;;1.00;;
2548;SDS011;1284;53.520;10.248;2023-06-22T00:41:43;1.65;;;1.00;;
2548;SDS011;1284;53.520;10.248;2023-06-22T00:44:09;1.65;;;0.93;;
2548;SDS011;1284;53.520;10.248;2023-06-22T00:46:34;0.98;;;0.75;;
2548;SDS011;1284;53.520;10.248;2023-06-22T00:49:00;1.52;;;0.82;;
2548;SDS011;1284;53.520;10.248;2023-06-22T00:51:27;1.25;;;0.90;;
2548;SDS011;1284;53.520;10.248;2023-06-22T00:53:52;1.85;;;1.00;;
2548;SDS011;1284;53.520;10.248;2023-06-22T00:56:19;0.80;;;0.80;;
2548;SDS011;1284;53.520;10.248;2023-06-22T00:58:45;1.23;;;0.90;;
2548;SDS011;1284;53.520;10.248;2023-06-22T01:01:12;1.08;;;0.80;;
2548;SDS011;1284;53.520;10.248;2023-06-22T01:03:39;1.40;;;0.77;;
2548;SDS011;1284;53.520;10.248;2023-06-22T01:06:07;1.63;;;1.00;;
2548;SDS011;1284;53.520;10.248;2023-06-22T01:11:15;2.70;;;0.80;;
2548;SDS011;1284;53.520;10.248;2023-06-22T01:16:34;2.28;;;1.10;;
2548;SDS011;1284;53.520;10.248;2023-06-22T01:19:09;2.80;;;1.00;;
2548;SDS011;1284;53.520;10.248;2023-06-22T01:21:41;3.55;;;1.05;;
2548;SDS011;1284;53.520;10.248;2023-06-22T01:26:54;1.83;;;0.90;;
2548;SDS011;1284;53.520;10.248;2023-06-22T01:29:21;1.90;;;0.90;;
2548;SDS011;1284;53.520;10.248;2023-06-22T01:32:08;1.13;;;0.77;;
2548;SDS011;1284;53.520;10.248;2023-06-22T01:34:36;1.02;;;0.90;;
2548;SDS011;1284;53.520;10.248;2023-06-22T01:37:05;1.60;;;0.88;;
2548;SDS011;1284;53.520;10.248;2023-06-22T01:39:32;0.85;;;0.77;;
2548;SDS011;1284;53.520;10.248;2023-06-22T01:41:58;1.88;;;0.80;;
2548;SDS011;1284;53.520;10.248;2023-06-22T01:44:27;1.52;;;1.10;;
2548;SDS011;1284;53.520;10.248;2023-06-22T01:46:53;1.05;;;0.60;;
2548;SDS011;1284;53.520;10.248;2023-06-22T01:49:20;1.73;;;0.77;;
2548;SDS011;1284;53.520;10.248;2023-06-22T01:51:46;3.28;;;0.80;;
2548;SDS011;1284;53.520;10.248;2023-06-22T01:54:11;0.82;;;0.60;;
2548;SDS011;1284;53.520;10.248;2023-06-22T01:56:38;0.90;;;0.77;;
2548;SDS011;1284;53.520;10.248;2023-06-22T02:02:06;1.50;;;0.77;;
2548;SDS011;1284;53.520;10.248;2023-06-22T02:04:44;1.10;;;1.00;;
2548;SDS011;1284;53.520;10.248;2023-06-22T02:07:14;1.35;;;0.80;;
2548;SDS011;1284;53.520;10.248;2023-06-22T02:09:43;0.60;;;0.60;;
2548;SDS011;1284;53.520;10.248;2023-06-22T02:12:13;1.67;;;0.98;;
2548;SDS011;1284;53.520;10.248;2023-06-22T02:14:44;1.38;;;0.85;;
2548;SDS011;1284;53.520;10.248;2023-06-22T02:17:12;3.38;;;1.05;;
2548;SDS011;1284;53.520;10.248;2023-06-22T02:19:42;0.93;;;0.80;;
2548;SDS011;1284;53.520;10.248;2023-06-22T02:22:07;1.17;;;0.93;;
2548;SDS011;1284;53.520;10.248;2023-06-22T02:24:33;1.48;;;0.93;;
2548;SDS011;1284;53.520;10.248;2023-06-22T02:26:59;1.52;;;1.10;;
2548;SDS011;1284;53.520;10.248;2023-06-22T02:29:25;1.48;;;0.90;;
2548;SDS011;1284;53.520;10.248;2023-06-22T02:31:52;1.58;;;1.00;;
2548;SDS011;1284;53.520;10.248;2023-06-22T02:34:18;1.67;;;0.95;;
2548;SDS011;1284;53.520;10.248;2023-06-22T02:36:48;1.30;;;0.80;;
2548;SDS011;1284;53.520;10.248;2023-06-22T02:39:18;0.77;;;0.75;;
2548;SDS011;1284;53.520;10.248;2023-06-22T02:44:18;0.95;;;0.70;;
2548;SDS011;1284;53.520;10.248;2023-06-22T02:47:04;4.13;;;1.00;;
2548;SDS011;1284;53.520;10.248;2023-06-22T02:49:50;0.82;;;0.65;;
2548;SDS011;1284;53.520;10.248;2023-06-22T02:52:15;2.00;;;0.88;;
2548;SDS011;1284;53.520;10.248;2023-06-22T02:55:02;1.70;;;0.90;;
2548;SDS011;1284;53.520;10.248;2023-06-22T02:57:28;2.25;;;0.77;;
2548;SDS011;1284;53.520;10.248;2023-06-22T02:59:54;0.70;;;0.70;;
2548;SDS011;1284;53.520;10.248;2023-06-22T03:02:20;1.15;;;0.77;;
2548;SDS011;1284;53.520;10.248;2023-06-22T03:04:47;0.93;;;0.57;;
2548;SDS011;1284;53.520;10.248;2023-06-22T03:07:14;1.05;;;0.95;;
2548;SDS011;1284;53.520;10.248;2023-06-22T03:09:40;0.77;;;0.75;;
2548;SDS011;1284;53.520;10.248;2023-06-22T03:12:08;1.15;;;0.80;;
2548;SDS011;1284;53.520;10.248;2023-06-22T03:14:42;1.17;;;1.00;;
2548;SDS011;1284;53.520;10.248;2023-06-22T03:17:08;1.73;;;1.00;;
2548;SDS011;1284;53.520;10.248;2023-06-22T03:19:36;0.95;;;0.82;;
2548;SDS011;1284;53.520;10.248;2023-06-22T03:22:01;2.15;;;1.10;;
2548;SDS011;1284;53.520;10.248;2023-06-22T03:24:27;1.00;;;0.70;;
2548;SDS011;1284;53.520;10.248;2023-06-22T03:26:56;1.65;;;0.85;;
2548;SDS011;1284;53.520;10.248;2023-06-22T03:29:22;1.63;;;1.15;;
2548;SDS011;1284;53.520;10.248;2023-06-22T03:31:48;1.30;;;1.00;;
2548;SDS011;1284;53.520;10.248;2023-06-22T03:34:14;1.33;;;1.20;;
2548;SDS011;1284;53.520;10.248;2023-06-22T03:36:40;2.05;;;0.90;;
2548;SDS011;1284;53.520;10.248;2023-06-22T03:39:05;1.02;;;0.90;;
2548;SDS011;1284;53.520;10.248;2023-06-22T03:41:31;2.00;;;1.23;;
2548;SDS011;1284;53.520;10.248;2023-06-22T03:43:56;2.13;;;0.95;;
2548;SDS011;1284;53.520;10.248;2023-06-22T03:46:22;4.72;;;1.35;;
2548;SDS011;1284;53.520;10.248;2023-06-22T03:48:47;1.35;;;0.95;;
2548;SDS011;1284;53.520;10.248;2023-06-22T03:51:13;1.08;;;0.80;;
2548;SDS011;1284;53.520;10.248;2023-06-22T03:53:38;2.20;;;1.00;;
2548;SDS011;1284;53.520;10.248;2023-06-22T03:56:03;2.17;;;0.80;;
2548;SDS011;1284;53.520;10.248;2023-06-22T03:58:29;1.48;;;0.93;;
2548;SDS011;1284;53.520;10.248;2023-06-22T04:00:58;1.27;;;0.98;;
2548;SDS011;1284;53.520;10.248;2023-06-22T04:03:25;2.05;;;1.00;;
2548;SDS011;1284;53.520;10.248;2023-06-22T04:05:50;1.25;;;0.85;;
2548;SDS011;1284;53.520;10.248;2023-06-22T04:08:16;2.30;;;1.08;;
2548;SDS011;1284;53.520;10.248;2023-06-22T04:10:41;1.13;;;1.02;;
2548;SDS011;1284;53.520;10.248;2023-06-22T04:13:07;1.23;;;0.93;;
2548;SDS011;1284;53.520;10.248;2023-06-22T04:15:32;1.45;;;0.95;;
2548;SDS011;1284;53.520;10.248;2023-06-22T04:17:58;1.45;;;1.00;;
2548;SDS011;1284;53.520;10.248;2023-06-22T04:20:24;1.30;;;0.80;;
2548;SDS011;1284;53.520;10.248;2023-06-22T04:22:54;2.13;;;1.13;;
2548;SDS011;1284;53.520;10.248;2023-06-22T04:25:20;1.45;;;1.08;;
2548;SDS011;1284;53.520;10.248;2023-06-22T04:27:46;1.50;;;1.05;;
2548;SDS011;1284;53.520;10.248;2023-06-22T04:30:12;1.17;;;0.82;;
2548;SDS011;1284;53.520;10.248;2023-06-22T04:32:40;1.00;;;0.85;;
2548;SDS011;1284;53.520;10.248;2023-06-22T04:35:06;1.20;;;1.10;;
2548;SDS011;1284;53.520;10.248;2023-06-22T04:37:33;2.13;;;1.17;;
2548;SDS011;1284;53.520;10.248;2023-06-22T04:39:59;3.00;;;0.90;;
2548;SDS011;1284;53.520;10.248;2023-06-22T04:42:26;1.08;;;0.98;;
2548;SDS011;1284;53.520;10.248;2023-06-22T04:44:52;1.10;;;0.93;;
2548;SDS011;1284;53.520;10.248;2023-06-22T04:47:18;1.92;;;0.90;;
2548;SDS011;1284;53.520;10.248;2023-06-22T04:49:43;1.70;;;0.90;;
2548;SDS011;1284;53.520;10.248;2023-06-22T04:52:10;1.75;;;0.93;;
2548;SDS011;1284;53.520;10.248;2023-06-22T04:54:38;2.25;;;1.17;;
2548;SDS011;1284;53.520;10.248;2023-06-22T04:57:06;1.52;;;1.00;;
2548;SDS011;1284;53.520;10.248;2023-06-22T04:59:35;1.42;;;1.00;;
2548;SDS011;1284;53.520;10.248;2023-06-22T05:02:04;2.00;;;1.08;;
2548;SDS011;1284;53.520;10.248;2023-06-22T05:04:31;2.78;;;1.05;;
2548;SDS011;1284;53.520;10.248;2023-06-22T05:06:57;1.23;;;0.85;;
2548;SDS011;1284;53.520;10.248;2023-06-22T05:09:25;1.38;;;0.82;;
2548;SDS011;1284;53.520;10.248;2023-06-22T05:11:50;1.77;;;0.98;;
2548;SDS011;1284;53.520;10.248;2023-06-22T05:14:16;1.23;;;0.75;;
2548;SDS011;1284;53.520;10.248;2023-06-22T05:16:42;2.22;;;0.98;;
2548;SDS011;1284;53.520;10.248;2023-06-22T05:19:08;1.42;;;0.82;;
2548;SDS011;1284;53.520;10.248;2023-06-22T05:21:34;0.95;;;0.90;;
2548;SDS011;1284;53.520;10.248;2023-06-22T05:23:59;1.30;;;1.00;;
2548;SDS011;1284;53.520;10.248;2023-06-22T05:26:27;1.25;;;0.75;;
2548;SDS011;1284;53.520;10.248;2023-06-22T05:28:56;1.13;;;0.77;;
2548;SDS011;1284;53.520;10.248;2023-06-22T05:31:22;2.22;;;0.90;;
2548;SDS011;1284;53.520;10.248;2023-06-22T05:33:49;1.48;;;0.95;;
2548;SDS011;1284;53.520;10.248;2023-06-22T05:36:17;2.35;;;1.30;;
2548;SDS011;1284;53.520;10.248;2023-06-22T05:38:45;1.58;;;1.08;;
2548;SDS011;1284;53.520;10.248;2023-06-22T05:41:10;1.63;;;1.08;;
2548;SDS011;1284;53.520;10.248;2023-06-22T05:43:36;1.35;;;0.90;;
2548;SDS011;1284;53.520;10.248;2023-06-22T05:46:02;1.55;;;1.00;;
2548;SDS011;1284;53.520;10.248;2023-06-22T05:48:27;1.38;;;0.93;;
2548;SDS011;1284;53.520;10.248;2023-06-22T05:50:53;2.80;;;0.73;;
2548;SDS011;1284;53.520;10.248;2023-06-22T05:53:19;1.60;;;0.80;;
2548;SDS011;1284;53.520;10.248;2023-06-22T05:55:44;1.85;;;0.90;;
2548;SDS011;1284;53.520;10.248;2023-06-22T05:58:10;1.67;;;0.88;;
2548;SDS011;1284;53.520;10.248;2023-06-22T06:00:36;0.80;;;0.52;;
2548;SDS011;1284;53.520;10.248;2023-06-22T06:03:01;2.25;;;1.13;;
2548;SDS011;1284;53.520;10.248;2023-06-22T06:05:32;4.60;;;1.02;;
2548;SDS011;1284;53.520;10.248;2023-06-22T06:07:59;1.48;;;0.70;;
2548;SDS011;1284;53.520;10.248;2023-06-22T06:10:25;0.88;;;0.70;;
2548;SDS011;1284;53.520;10.248;2023-06-22T06:12:51;2.22;;;0.98;;
2548;SDS011;1284;53.520;10.248;2023-06-22T06:15:17;1.65;;;0.80;;
2548;SDS011;1284;53.520;10.248;2023-06-22T06:17:46;2.45;;;0.73;;
2548;SDS011;1284;53.520;10.248;2023-06-22T06:20:21;1.10;;;0.90;;
2548;SDS011;1284;53.520;10.248;2023-06-22T06:22:48;0.77;;;0.77;;
2548;SDS011;1284;53.520;10.248;2023-06-22T06:25:14;1.17;;;1.00;;
2548;SDS011;1284;53.520;10.248;2023-06-22T06:27:48;1.48;;;0.82;;
2548;SDS011;1284;53.520;10.248;2023-06-22T06:30:17;1.27;;;0.60;;
2548;SDS011;1284;53.520;10.248;2023-06-22T06:32:44;1.42;;;0.55;;
2548;SDS011;1284;53.520;10.248;2023-06-22T06:35:11;2.20;;;0.90;;
2548;SDS011;1284;53.520;10.248;2023-06-22T06:37:41;1.48;;;0.90;;
2548;SDS011;1284;53.520;10.248;2023-06-22T06:40:14;1.15;;;0.70;;
2548;SDS011;1284;53.520;10.248;2023-06-22T06:42:41;0.80;;;0.50;;
2548;SDS011;1284;53.520;10.248;2023-06-22T06:45:10;1.58;;;1.05;;
2548;SDS011;1284;53.520;10.248;2023-06-22T06:47:40;2.55;;;0.65;;
2548;SDS011;1284;53.520;10.248;2023-06-22T06:50:05;1.60;;;0.65;;
2548;SDS011;1284;53.520;10.248;2023-06-22T06:52:31;0.90;;;0.85;;
2548;SDS011;1284;53.520;10.248;2023-06-22T06:54:57;1.52;;;0.90;;
2548;SDS011;1284;53.520;10.248;2023-06-22T06:57:24;1.30;;;0.73;;
2548;SDS011;1284;53.520;10.248;2023-06-22T06:59:54;1.00;;;0.55;;
2548;SDS011;1284;53.520;10.248;2023-06-22T07:02:21;1.25;;;0.70;;
2548;SDS011;1284;53.520;10.248;2023-06-22T07:04:47;0.70;;;0.52;;
2548;SDS011;1284;53.520;10.248;2023-06-22T07:07:13;1.40;;;0.90;;
2548;SDS011;1284;53.520;10.248;2023-06-22T07:09:38;0.93;;;0.63;;
2548;SDS011;1284;53.520;10.248;2023-06-22T07:12:04;0.55;;;0.55;;
2548;SDS011;1284;53.520;10.248;2023-06-22T07:14:51;0.88;;;0.73;;
2548;SDS011;1284;53.520;10.248;2023-06-22T07:17:17;1.40;;;0.93;;
2548;SDS011;1284;53.520;10.248;2023-06-22T07:19:43;1.25;;;0.60;;
2548;SDS011;1284;53.520;10.248;2023-06-22T07:22:08;1.08;;;0.68;;
2548;SDS011;1284;53.520;10.248;2023-06-22T07:24:34;2.17;;;0.60;;
2548;SDS011;1284;53.520;10.248;2023-06-22T07:26:59;1.40;;;0.70;;
2548;SDS011;1284;53.520;10.248;2023-06-22T07:29:25;0.82;;;0.82;;
2548;SDS011;1284;53.520;10.248;2023-06-22T07:31:52;1.40;;;0.80;;
2548;SDS011;1284;53.520;10.248;2023-06-22T07:34:17;1.20;;;0.60;;
2548;SDS011;1284;53.520;10.248;2023-06-22T07:36:43;1.30;;;0.70;;
2548;SDS011;1284;53.520;10.248;2023-06-22T07:39:09;0.98;;;0.80;;
2548;SDS011;1284;53.520;10.248;2023-06-22T07:41:35;0.88;;;0.60;;
2548;SDS011;1284;53.520;10.248;2023-06-22T07:44:03;0.80;;;0.60;;
2548;SDS011;1284;53.520;10.248;2023-06-22T07:46:29;0.65;;;0.55;;
2548;SDS011;1284;53.520;10.248;2023-06-22T07:48:55;1.40;;;0.70;;
2548;SDS011;1284;53.520;10.248;2023-06-22T07:51:21;2.13;;;0.55;;
2548;SDS011;1284;53.520;10.248;2023-06-22T07:53:47;0.70;;;0.52;;
2548;SDS011;1284;53.520;10.248;2023-06-22T07:56:13;0.80;;;0.70;;
2548;SDS011;1284;53.520;10.248;2023-06-22T07:58:44;1.40;;;0.77;;
2548;SDS011;1284;53.520;10.248;2023-06-22T08:01:09;0.55;;;0.43;;
2548;SDS011;1284;53.520;10.248;2023-06-22T08:03:35;0.93;;;0.60;;
2548;SDS011;1284;53.520;10.248;2023-06-22T08:06:01;0.77;;;0.57;;
2548;SDS011;1284;53.520;10.248;2023-06-22T08:08:26;1.13;;;0.90;;
2548;SDS011;1284;53.520;10.248;2023-06-22T08:10:52;5.30;;;0.80;;
2548;SDS011;1284;53.520;10.248;2023-06-22T08:13:20;0.82;;;0.50;;
2548;SDS011;1284;53.520;10.248;2023-06-22T08:15:45;1.15;;;0.60;;
2548;SDS011;1284;53.520;10.248;2023-06-22T08:18:11;1.10;;;0.60;;
2548;SDS011;1284;53.520;10.248;2023-06-22T08:20:36;0.98;;;0.73;;
2548;SDS011;1284;53.520;10.248;2023-06-22T08:23:02;0.88;;;0.70;;
2548;SDS011;1284;53.520;10.248;2023-06-22T08:25:34;0.88;;;0.77;;
2548;SDS011;1284;53.520;10.248;2023-06-22T08:28:01;1.90;;;0.90;;
2548;SDS011;1284;53.520;10.248;2023-06-22T08:30:27;1.58;;;0.50;;
2548;SDS011;1284;53.520;10.248;2023-06-22T08:32:52;0.88;;;0.50;;
2548;SDS011;1284;53.520;10.248;2023-06-22T08:35:19;1.00;;;0.60;;
2548;SDS011;1284;53.520;10.248;2023-06-22T08:37:45;0.55;;;0.50;;
2548;SDS011;1284;53.520;10.248;2023-06-22T08:40:15;0.80;;;0.60;;
2548;SDS011;1284;53.520;10.248;2023-06-22T08:42:41;0.40;;;0.40;;
2548;SDS011;1284;53.520;10.248;2023-06-22T08:45:06;2.22;;;0.60;;
2548;SDS011;1284;53.520;10.248;2023-06-22T08:47:32;1.33;;;0.50;;
2548;SDS011;1284;53.520;10.248;2023-06-22T08:49:58;0.70;;;0.50;;
2548;SDS011;1284;53.520;10.248;2023-06-22T08:52:23;1.48;;;0.52;;
2548;SDS011;1284;53.520;10.248;2023-06-22T08:54:49;2.85;;;0.50;;
2548;SDS011;1284;53.520;10.248;2023-06-22T08:57:15;0.35;;;0.35;;
2548;SDS011;1284;53.520;10.248;2023-06-22T08:59:41;0.35;;;0.30;;
2548;SDS011;1284;53.520;10.248;2023-06-22T09:02:07;1.63;;;0.45;;
2548;SDS011;1284;53.520;10.248;2023-06-22T09:04:32;0.95;;;0.40;;
2548;SDS011;1284;53.520;10.248;2023-06-22T09:07:02;0.75;;;0.60;;
2548;SDS011;1284;53.520;10.248;2023-06-22T09:09:28;0.47;;;0.45;;
2548;SDS011;1284;53.520;10.248;2023-06-22T09:11:54;1.40;;;0.80;;
2548;SDS011;1284;53.520;10.248;2023-06-22T09:14:20;1.05;;;0.60;;
2548;SDS011;1284;53.520;10.248;2023-06-22T09:16:45;0.75;;;0.45;;
2548;SDS011;1284;53.520;10.248;2023-06-22T09:19:11;1.17;;;0.60;;
2548;SDS011;1284;53.520;10.248;2023-06-22T09:21:37;1.67;;;0.60;;
2548;SDS011;1284;53.520;10.248;2023-06-22T09:24:03;0.47;;;0.32;;
2548;SDS011;1284;53.520;10.248;2023-06-22T09:26:29;0.57;;;0.50;;
2548;SDS011;1284;53.520;10.248;2023-06-22T09:28:54;0.28;;;0.28;;
2548;SDS011;1284;53.520;10.248;2023-06-22T09:31:20;5.28;;;0.50;;
2548;SDS011;1284;53.520;10.248;2023-06-22T09:33:51;0.68;;;0.60;;
2548;SDS011;1284;53.520;10.248;2023-06-22T09:36:22;0.90;;;0.40;;
2548;SDS011;1284;53.520;10.248;2023-06-22T09:38:51;0.32;;;0.30;;
2548;SDS011;1284;53.520;10.248;2023-06-22T09:41:21;0.60;;;0.60;;
2548;SDS011;1284;53.520;10.248;2023-06-22T09:43:47;1.58;;;0.50;;
2548;SDS011;1284;53.520;10.248;2023-06-22T09:46:14;1.05;;;0.52;;
2548;SDS011;1284;53.520;10.248;2023-06-22T09:48:40;0.43;;;0.43;;
2548;SDS011;1284;53.520;10.248;2023-06-22T09:51:06;2.55;;;0.63;;
2548;SDS011;1284;53.520;10.248;2023-06-22T09:53:31;0.80;;;0.68;;
2548;SDS011;1284;53.520;10.248;2023-06-22T09:55:57;0.70;;;0.50;;
2548;SDS011;1284;53.520;10.248;2023-06-22T09:58:23;0.60;;;0.50;;
2548;SDS011;1284;53.520;10.248;2023-06-22T10:00:48;1.60;;;0.80;;
2548;SDS011;1284;53.520;10.248;2023-06-22T10:03:13;1.48;;;0.70;;
2548;SDS011;1284;53.520;10.248;2023-06-22T10:05:39;1.38;;;0.60;;
2548;SDS011;1284;53.520;10.248;2023-06-22T10:08:04;0.82;;;0.60;;
2548;SDS011;1284;53.520;10.248;2023-06-22T10:10:30;1.95;;;0.70;;
2548;SDS011;1284;53.520;10.248;2023-06-22T10:12:56;1.00;;;0.68;;
2548;SDS011;1284;53.520;10.248;2023-06-22T10:15:23;0.70;;;0.50;;
2548;SDS011;1284;53.520;10.248;2023-06-22T10:17:51;0.63;;;0.60;;
2548;SDS011;1284;53.520;10.248;2023-06-22T10:20:16;1.05;;;0.70;;
2548;SDS011;1284;53.520;10.248;2023-06-22T10:22:44;1.00;;;0.60;;
2548;SDS011;1284;53.520;10.248;2023-06-22T10:25:10;1.33;;;0.65;;
2548;SDS011;1284;53.520;10.248;2023-06-22T10:27:37;0.93;;;0.65;;
2548;SDS011;1284;53.520;10.248;2023-06-22T10:30:05;1.27;;;0.80;;
2548;SDS011;1284;53.520;10.248;2023-06-22T10:32:32;1.35;;;0.60;;
2548;SDS011;1284;53.520;10.248;2023-06-22T10:34:58;0.60;;;0.50;;
2548;SDS011;1284;53.520;10.248;2023-06-22T10:37:23;1.02;;;0.70;;
2548;SDS011;1284;53.520;10.248;2023-06-22T10:39:49;1.02;;;0.60;;
2548;SDS011;1284;53.520;10.248;2023-06-22T10:42:35;1.63;;;0.73;;
2548;SDS011;1284;53.520;10.248;2023-06-22T10:45:00;0.77;;;0.60;;
2548;SDS011;1284;53.520;10.248;2023-06-22T10:47:26;1.05;;;0.70;;
2548;SDS011;1284;53.520;10.248;2023-06-22T10:49:54;1.33;;;0.93;;
2548;SDS011;1284;53.520;10.248;2023-06-22T10:52:20;1.45;;;0.60;;
2548;SDS011;1284;53.520;10.248;2023-06-22T10:54:45;1.60;;;0.60;;
2548;SDS011;1284;53.520;10.248;2023-06-22T10:57:10;1.30;;;0.80;;
2548;SDS011;1284;53.520;10.248;2023-06-22T10:59:36;0.90;;;0.70;;
2548;SDS011;1284;53.520;10.248;2023-06-22T11:02:02;1.15;;;0.55;;
2548;SDS011;1284;53.520;10.248;2023-06-22T11:04:27;1.08;;;0.60;;
2548;SDS011;1284;53.520;10.248;2023-06-22T11:06:52;1.33;;;0.88;;
2548;SDS011;1284;53.520;10.248;2023-06-22T11:09:18;0.60;;;0.60;;
2548;SDS011;1284;53.520;10.248;2023-06-22T11:11:49;0.90;;;0.70;;
2548;SDS011;1284;53.520;10.248;2023-06-22T11:14:16;0.90;;;0.73;;
2548;SDS011;1284;53.520;10.248;2023-06-22T11:16:41;1.33;;;0.70;;
2548;SDS011;1284;53.520;10.248;2023-06-22T11:19:35;1.40;;;0.85;;
2548;SDS011;1284;53.520;10.248;2023-06-22T11:22:01;1.75;;;1.10;;
2548;SDS011;1284;53.520;10.248;2023-06-22T11:24:27;2.13;;;0.93;;
2548;SDS011;1284;53.520;10.248;2023-06-22T11:26:52;1.55;;;0.77;;
2548;SDS011;1284;53.520;10.248;2023-06-22T11:29:18;0.70;;;0.63;;
2548;SDS011;1284;53.520;10.248;2023-06-22T11:31:43;1.17;;;0.90;;
2548;SDS011;1284;53.520;10.248;2023-06-22T11:34:09;1.80;;;1.02;;
2548;SDS011;1284;53.520;10.248;2023-06-22T11:36:34;1.40;;;0.85;;
2548;SDS011;1284;53.520;10.248;2023-06-22T11:39:00;2.03;;;1.00;;
2548;SDS011;1284;53.520;10.248;2023-06-22T11:41:26;1.33;;;0.98;;
2548;SDS011;1284;53.520;10.248;2023-06-22T11:43:52;1.08;;;0.85;;
2548;SDS011;1284;53.520;10.248;2023-06-22T11:46:17;1.10;;;0.80;;
2548;SDS011;1284;53.520;10.248;2023-06-22T11:48:42;0.90;;;0.80;;
2548;SDS011;1284;53.520;10.248;2023-06-22T11:51:08;1.30;;;0.90;;
2548;SDS011;1284;53.520;10.248;2023-06-22T11:53:34;1.50;;;0.85;;
2548;SDS011;1284;53.520;10.248;2023-06-22T11:56:00;1.67;;;0.93;;
2548;SDS011;1284;53.520;10.248;2023-06-22T11:58:26;1.75;;;1.00;;
2548;SDS011;1284;53.520;10.248;2023-06-22T12:00:51;1.50;;;0.90;;
2548;SDS011;1284;53.520;10.248;2023-06-22T12:03:17;1.10;;;0.80;;
2548;SDS011;1284;53.520;10.248;2023-06-22T12:05:43;1.73;;;1.08;;
2548;SDS011;1284;53.520;10.248;2023-06-22T12:08:08;0.95;;;0.70;;
2548;SDS011;1284;53.520;10.248;2023-06-22T12:10:34;1.23;;;1.10;;
2548;SDS011;1284;53.520;10.248;2023-06-22T12:12:59;1.25;;;0.98;;
2548;SDS011;1284;53.520;10.248;2023-06-22T12:15:25;0.93;;;0.73;;
2548;SDS011;1284;53.520;10.248;2023-06-22T12:17:52;0.95;;;0.93;;
2548;SDS011;1284;53.520;10.248;2023-06-22T12:20:18;0.70;;;0.70;;
2548;SDS011;1284;53.520;10.248;2023-06-22T12:22:43;2.10;;;0.95;;
2548;SDS011;1284;53.520;10.248;2023-06-22T12:25:09;1.23;;;0.90;;
2548;SDS011;1284;53.520;10.248;2023-06-22T12:27:35;2.80;;;0.75;;
2548;SDS011;1284;53.520;10.248;2023-06-22T12:30:01;1.70;;;0.90;;
2548;SDS011;1284;53.520;10.248;2023-06-22T12:32:47;1.38;;;0.80;;
2548;SDS011;1284;53.520;10.248;2023-06-22T12:35:13;1.08;;;0.93;;
2548;SDS011;1284;53.520;10.248;2023-06-22T12:37:42;1.13;;;0.90;;
2548;SDS011;1284;53.520;10.248;2023-06-22T12:40:08;1.00;;;0.90;;
2548;SDS011;1284;53.520;10.248;2023-06-22T12:42:34;1.33;;;0.90;;
2548;SDS011;1284;53.520;10.248;2023-06-22T12:44:59;1.30;;;1.02;;
2548;SDS011;1284;53.520;10.248;2023-06-22T12:47:25;1.20;;;0.88;;
2548;SDS011;1284;53.520;10.248;2023-06-22T12:49:50;1.30;;;0.90;;
2548;SDS011;1284;53.520;10.248;2023-06-22T12:52:16;1.48;;;0.88;;
2548;SDS011;1284;53.520;10.248;2023-06-22T12:54:41;1.50;;;1.10;;
2548;SDS011;1284;53.520;10.248;2023-06-22T12:57:07;1.48;;;1.30;;
2548;SDS011;1284;53.520;10.248;2023-06-22T12:59:32;1.95;;;1.20;;
2548;SDS011;1284;53.520;10.248;2023-06-22T13:01:58;1.52;;;1.05;;
2548;SDS011;1284;53.520;10.248;2023-06-22T13:04:23;3.25;;;1.27;;
2548;SDS011;1284;53.520;10.248;2023-06-22T13:06:48;1.08;;;0.90;;
2548;SDS011;1284;53.520;10.248;2023-06-22T13:09:14;2.03;;;1.40;;
2548;SDS011;1284;53.520;10.248;2023-06-22T13:11:41;1.02;;;0.95;;
2548;SDS011;1284;53.520;10.248;2023-06-22T13:14:06;3.13;;;1.50;;
2548;SDS011;1284;53.520;10.248;2023-06-22T13:16:32;2.25;;;1.50;;
2548;SDS011;1284;53.520;10.248;2023-06-22T13:18:57;3.30;;;1.10;;
2548;SDS011;1284;53.520;10.248;2023-06-22T13:21:23;1.73;;;1.00;;
2548;SDS011;1284;53.520;10.248;2023-06-22T13:23:48;1.70;;;1.10;;
2548;SDS011;1284;53.520;10.248;2023-06-22T13:26:14;1.58;;;1.10;;
2548;SDS011;1284;53.520;10.248;2023-06-22T13:28:39;1.90;;;1.02;;
2548;SDS011;1284;53.520;10.248;2023-06-22T13:31:05;1.85;;;1.10;;
2548;SDS011;1284;53.520;10.248;2023-06-22T13:33:30;2.83;;;1.08;;
2548;SDS011;1284;53.520;10.248;2023-06-22T13:35:56;4.55;;;1.05;;
2548;SDS011;1284;53.520;10.248;2023-06-22T13:38:22;1.35;;;1.20;;
2548;SDS011;1284;53.520;10.248;2023-06-22T13:40:48;1.20;;;1.10;;
2548;SDS011;1284;53.520;10.248;2023-06-22T13:43:14;1.77;;;1.30;;
2548;SDS011;1284;53.520;10.248;2023-06-22T13:45:40;2.33;;;1.17;;
2548;SDS011;1284;53.520;10.248;2023-06-22T13:48:06;1.98;;;1.30;;
2548;SDS011;1284;53.520;10.248;2023-06-22T13:50:32;1.30;;;1.15;;
2548;SDS011;1284;53.520;10.248;2023-06-22T13:52:57;2.10;;;1.02;;
2548;SDS011;1284;53.520;10.248;2023-06-22T13:55:23;1.73;;;1.40;;
2548;SDS011;1284;53.520;10.248;2023-06-22T13:57:48;1.98;;;1.20;;
2548;SDS011;1284;53.520;10.248;2023-06-22T14:00:16;1.30;;;1.15;;
2548;SDS011;1284;53.520;10.248;2023-06-22T14:02:42;1.63;;;1.15;;
2548;SDS011;1284;53.520;10.248;2023-06-22T14:05:07;1.38;;;1.02;;
2548;SDS011;1284;53.520;10.248;2023-06-22T14:07:33;2.40;;;1.40;;
2548;SDS011;1284;53.520;10.248;2023-06-22T14:09:59;1.90;;;1.00;;
2548;SDS011;1284;53.520;10.248;2023-06-22T14:12:26;1.92;;;1.15;;
2548;SDS011;1284;53.520;10.248;2023-06-22T14:14:51;1.60;;;1.10;;
2548;SDS011;1284;53.520;10.248;2023-06-22T14:17:17;1.95;;;1.27;;
2548;SDS011;1284;53.520;10.248;2023-06-22T14:19:43;0.93;;;0.80;;
2548;SDS011;1284;53.520;10.248;2023-06-22T14:22:08;2.05;;;1.08;;
2548;SDS011;1284;53.520;10.248;2023-06-22T14:24:33;1.52;;;1.20;;
2548;SDS011;1284;53.520;10.248;2023-06-22T14:26:59;2.63;;;1.15;;
2548;SDS011;1284;53.520;10.248;2023-06-22T14:29:27;2.53;;;1.17;;
2548;SDS011;1284;53.520;10.248;2023-06-22T14:31:53;2.05;;;1.35;;
2548;SDS011;1284;53.520;10.248;2023-06-22T14:34:18;1.85;;;1.38;;
2548;SDS011;1284;53.520;10.248;2023-06-22T14:37:07;2.45;;;1.45;;
2548;SDS011;1284;53.520;10.248;2023-06-22T14:39:34;2.65;;;1.65;;
2548;SDS011;1284;53.520;10.248;2023-06-22T14:42:00;1.50;;;1.10;;
2548;SDS011;1284;53.520;10.248;2023-06-22T14:44:26;1.85;;;1.15;;
2548;SDS011;1284;53.520;10.248;2023-06-22T14:46:54;1.30;;;1.00;;
2548;SDS011;1284;53.520;10.248;2023-06-22T14:49:20;1.17;;;1.08;;
2548;SDS011;1284;53.520;10.248;2023-06-22T14:51:45;1.98;;;1.15;;
2548;SDS011;1284;53.520;10.248;2023-06-22T14:54:11;1.42;;;1.23;;
2548;SDS011;1284;53.520;10.248;2023-06-22T14:56:36;2.83;;;1.30;;
2548;SDS011;1284;53.520;10.248;2023-06-22T14:59:02;2.63;;;1.67;;
2548;SDS011;1284;53.520;10.248;2023-06-22T15:01:27;1.55;;;1.30;;
2548;SDS011;1284;53.520;10.248;2023-06-22T15:03:53;2.08;;;1.10;;
2548;SDS011;1284;53.520;10.248;2023-06-22T15:06:18;1.10;;;0.93;;
2548;SDS011;1284;53.520;10.248;2023-06-22T15:08:44;1.80;;;1.20;;
2548;SDS011;1284;53.520;10.248;2023-06-22T15:11:09;1.63;;;1.30;;
2548;SDS011;1284;53.520;10.248;2023-06-22T15:13:38;1.48;;;1.38;;